sensor_id;sensor_type;location;lat;lon;timestamp;temperature;humidity
41304;DHT22;51002;51.462;7.218;2023-05-23T00:00:27;16.30;89.20
41304;DHT22;51002;51.462;7.218;2023-05-23T00:02:53;16.20;88.50
41304;DHT22;51002;51.462;7.218;2023-05-23T00:05:18;16.20;89.30
41304;DHT22;51002;51.462;7.218;2023-05-23T00:07:44;16.10;87.40
41304;DHT22;51002;51.462;7.218;2023-05-23T00:10:10;16.20;88.00
41304;DHT22;51002;51.462;7.218;2023-05-23T00:12:38;16.30;89.30
41304;DHT22;51002;51.462;7.218;2023-05-23T00:15:07;16.30;89.80
41304;DHT22;51002;51.462;7.218;2023-05-23T00:17:32;16.20;87.40
41304;DHT22;51002;51.462;7.218;2023-05-23T00:20:00;16.20;87.90
41304;DHT22;51002;51.462;7.218;2023-05-23T00:22:26;16.20;87.80
41304;DHT22;51002;51.462;7.218;2023-05-23T00:24:51;16.30;89.60
41304;DHT22;51002;51.462;7.218;2023-05-23T00:27:22;16.20;88.10
41304;DHT22;51002;51.462;7.218;2023-05-23T00:29:50;16.20;87.80
41304;DHT22;51002;51.462;7.218;2023-05-23T00:32:17;16.00;86.70
41304;DHT22;51002;51.462;7.218;2023-05-23T00:34:43;16.00;86.70
41304;DHT22;51002;51.462;7.218;2023-05-23T00:37:11;16.10;87.50
41304;DHT22;51002;51.462;7.218;2023-05-23T00:39:37;15.90;86.40
41304;DHT22;51002;51.462;7.218;2023-05-23T00:42:03;15.90;86.90
41304;DHT22;51002;51.462;7.218;2023-05-23T00:44:32;16.00;88.20
41304;DHT22;51002;51.462;7.218;2023-05-23T00:46:57;16.10;88.10
41304;DHT22;51002;51.462;7.218;2023-05-23T00:49:25;15.90;87.80
41304;DHT22;51002;51.462;7.218;2023-05-23T00:51:52;15.90;86.50
41304;DHT22;51002;51.462;7.218;2023-05-23T00:54:23;16.00;87.20
41304;DHT22;51002;51.462;7.218;2023-05-23T00:56:49;16.20;88.70
41304;DHT22;51002;51.462;7.218;2023-05-23T00:59:15;16.00;87.30
41304;DHT22;51002;51.462;7.218;2023-05-23T01:01:41;16.00;86.30
41304;DHT22;51002;51.462;7.218;2023-05-23T01:04:11;15.80;86.10
41304;DHT22;51002;51.462;7.218;2023-05-23T01:06:37;15.70;84.90
41304;DHT22;51002;51.462;7.218;2023-05-23T01:09:05;15.80;85.90
41304;DHT22;51002;51.462;7.218;2023-05-23T01:11:37;15.90;87.10
41304;DHT22;51002;51.462;7.218;2023-05-23T01:14:09;15.80;85.80
41304;DHT22;51002;51.462;7.218;2023-05-23T01:21:56;16.00;87.70
41304;DHT22;51002;51.462;7.218;2023-05-23T01:24:40;16.00;87.50
41304;DHT22;51002;51.462;7.218;2023-05-23T01:29:56;16.00;88.20
41304;DHT22;51002;51.462;7.218;2023-05-23T01:32:25;15.80;87.10
41304;DHT22;51002;51.462;7.218;2023-05-23T01:34:53;15.80;85.80
41304;DHT22;51002;51.462;7.218;2023-05-23T01:37:19;15.90;87.20
41304;DHT22;51002;51.462;7.218;2023-05-23T01:39:45;16.00;88.30
41304;DHT22;51002;51.462;7.218;2023-05-23T01:42:13;16.00;88.50
41304;DHT22;51002;51.462;7.218;2023-05-23T01:44:38;15.90;87.70
41304;DHT22;51002;51.462;7.218;2023-05-23T01:47:04;16.00;88.80
41304;DHT22;51002;51.462;7.218;2023-05-23T01:49:34;16.10;89.60
41304;DHT22;51002;51.462;7.218;2023-05-23T01:52:01;16.10;89.60
41304;DHT22;51002;51.462;7.218;2023-05-23T01:54:26;16.00;89.30
41304;DHT22;51002;51.462;7.218;2023-05-23T01:56:57;16.00;89.20
41304;DHT22;51002;51.462;7.218;2023-05-23T01:59:23;15.80;86.80
41304;DHT22;51002;51.462;7.218;2023-05-23T02:01:51;15.80;86.30
41304;DHT22;51002;51.462;7.218;2023-05-23T02:04:17;16.00;88.90
41304;DHT22;51002;51.462;7.218;2023-05-23T02:06:45;15.80;87.50
41304;DHT22;51002;51.462;7.218;2023-05-23T02:09:11;15.90;87.80
41304;DHT22;51002;51.462;7.218;2023-05-23T02:11:39;15.90;87.40
41304;DHT22;51002;51.462;7.218;2023-05-23T02:14:05;16.00;87.90
41304;DHT22;51002;51.462;7.218;2023-05-23T02:16:31;16.00;87.50
41304;DHT22;51002;51.462;7.218;2023-05-23T02:18:57;16.00;86.60
41304;DHT22;51002;51.462;7.218;2023-05-23T02:21:26;16.00;88.00
41304;DHT22;51002;51.462;7.218;2023-05-23T02:23:51;16.00;87.80
41304;DHT22;51002;51.462;7.218;2023-05-23T02:26:19;16.00;87.20
41304;DHT22;51002;51.462;7.218;2023-05-23T02:28:49;16.00;88.20
41304;DHT22;51002;51.462;7.218;2023-05-23T02:31:15;15.90;87.60
41304;DHT22;51002;51.462;7.218;2023-05-23T02:33:41;15.80;87.50
41304;DHT22;51002;51.462;7.218;2023-05-23T02:36:06;15.90;89.00
41304;DHT22;51002;51.462;7.218;2023-05-23T02:38:32;15.90;88.20
41304;DHT22;51002;51.462;7.218;2023-05-23T02:40:57;16.00;88.50
41304;DHT22;51002;51.462;7.218;2023-05-23T02:43:23;15.90;88.00
41304;DHT22;51002;51.462;7.218;2023-05-23T02:45:48;15.80;87.60
41304;DHT22;51002;51.462;7.218;2023-05-23T02:48:14;15.90;87.60
41304;DHT22;51002;51.462;7.218;2023-05-23T02:50:40;15.80;86.60
41304;DHT22;51002;51.462;7.218;2023-05-23T02:53:05;15.80;87.60
41304;DHT22;51002;51.462;7.218;2023-05-23T02:55:33;15.80;88.00
41304;DHT22;51002;51.462;7.218;2023-05-23T02:57:59;15.80;89.10
41304;DHT22;51002;51.462;7.218;2023-05-23T03:00:32;15.80;88.40
41304;DHT22;51002;51.462;7.218;2023-05-23T03:02:57;15.60;86.70
41304;DHT22;51002;51.462;7.218;2023-05-23T03:05:23;15.70;87.50
41304;DHT22;51002;51.462;7.218;2023-05-23T03:07:50;15.50;86.60
41304;DHT22;51002;51.462;7.218;2023-05-23T03:10:16;15.60;88.10
41304;DHT22;51002;51.462;7.218;2023-05-23T03:12:42;15.70;88.10
41304;DHT22;51002;51.462;7.218;2023-05-23T03:15:09;15.80;89.60
41304;DHT22;51002;51.462;7.218;2023-05-23T03:17:35;15.70;89.20
41304;DHT22;51002;51.462;7.218;2023-05-23T03:20:00;15.70;88.60
41304;DHT22;51002;51.462;7.218;2023-05-23T03:22:26;15.70;88.50
41304;DHT22;51002;51.462;7.218;2023-05-23T03:24:54;15.60;87.10
41304;DHT22;51002;51.462;7.218;2023-05-23T03:27:22;15.70;88.00
41304;DHT22;51002;51.462;7.218;2023-05-23T03:29:47;15.60;87.20
41304;DHT22;51002;51.462;7.218;2023-05-23T03:32:13;15.70;86.90
41304;DHT22;51002;51.462;7.218;2023-05-23T03:34:38;15.70;86.80
41304;DHT22;51002;51.462;7.218;2023-05-23T03:37:06;15.70;87.30
41304;DHT22;51002;51.462;7.218;2023-05-23T03:39:32;15.60;86.30
41304;DHT22;51002;51.462;7.218;2023-05-23T03:41:57;15.70;86.70
41304;DHT22;51002;51.462;7.218;2023-05-23T03:44:23;15.60;87.30
41304;DHT22;51002;51.462;7.218;2023-05-23T03:46:48;15.60;87.40
41304;DHT22;51002;51.462;7.218;2023-05-23T03:49:14;15.70;87.40
41304;DHT22;51002;51.462;7.218;2023-05-23T03:51:39;15.70;86.40
41304;DHT22;51002;51.462;7.218;2023-05-23T03:54:05;15.70;87.20
41304;DHT22;51002;51.462;7.218;2023-05-23T03:56:30;15.60;86.60
41304;DHT22;51002;51.462;7.218;2023-05-23T03:58:56;15.60;86.80
41304;DHT22;51002;51.462;7.218;2023-05-23T04:01:21;15.50;86.20
41304;DHT22;51002;51.462;7.218;2023-05-23T04:03:47;15.50;87.00
41304;DHT22;51002;51.462;7.218;2023-05-23T04:06:13;15.60;86.60
41304;DHT22;51002;51.462;7.218;2023-05-23T04:08:38;15.50;86.10
41304;DHT22;51002;51.462;7.218;2023-05-23T04:11:06;15.70;88.20
41304;DHT22;51002;51.462;7.218;2023-05-23T04:13:31;15.70;88.70
41304;DHT22;51002;51.462;7.218;2023-05-23T04:15:58;15.70;88.10
41304;DHT22;51002;51.462;7.218;2023-05-23T04:18:25;15.60;87.30
41304;DHT22;51002;51.462;7.218;2023-05-23T04:20:53;15.70;88.40
41304;DHT22;51002;51.462;7.218;2023-05-23T04:23:19;15.70;88.00
41304;DHT22;51002;51.462;7.218;2023-05-23T04:25:44;15.70;87.90
41304;DHT22;51002;51.462;7.218;2023-05-23T04:28:10;15.80;88.60
41304;DHT22;51002;51.462;7.218;2023-05-23T04:30:36;15.80;88.70
41304;DHT22;51002;51.462;7.218;2023-05-23T04:33:02;15.70;87.70
41304;DHT22;51002;51.462;7.218;2023-05-23T04:35:27;15.70;88.20
41304;DHT22;51002;51.462;7.218;2023-05-23T04:37:53;15.70;88.10
41304;DHT22;51002;51.462;7.218;2023-05-23T04:40:21;15.50;86.00
41304;DHT22;51002;51.462;7.218;2023-05-23T04:42:47;15.70;87.10
41304;DHT22;51002;51.462;7.218;2023-05-23T04:45:12;15.60;86.90
41304;DHT22;51002;51.462;7.218;2023-05-23T04:47:38;15.60;85.80
41304;DHT22;51002;51.462;7.218;2023-05-23T04:50:03;15.60;86.20
41304;DHT22;51002;51.462;7.218;2023-05-23T04:52:29;15.60;86.20
41304;DHT22;51002;51.462;7.218;2023-05-23T04:54:57;15.60;85.40
41304;DHT22;51002;51.462;7.218;2023-05-23T04:57:22;15.60;86.90
41304;DHT22;51002;51.462;7.218;2023-05-23T04:59:48;15.70;87.20
41304;DHT22;51002;51.462;7.218;2023-05-23T05:02:18;15.80;87.80
41304;DHT22;51002;51.462;7.218;2023-05-23T05:04:44;15.70;86.00
41304;DHT22;51002;51.462;7.218;2023-05-23T05:07:09;15.80;86.50
41304;DHT22;51002;51.462;7.218;2023-05-23T05:09:35;15.80;86.20
41304;DHT22;51002;51.462;7.218;2023-05-23T05:12:01;15.60;85.60
41304;DHT22;51002;51.462;7.218;2023-05-23T05:14:29;15.70;86.00
41304;DHT22;51002;51.462;7.218;2023-05-23T05:16:55;15.70;85.60
41304;DHT22;51002;51.462;7.218;2023-05-23T05:19:22;15.60;84.80
41304;DHT22;51002;51.462;7.218;2023-05-23T05:21:48;15.70;85.20
41304;DHT22;51002;51.462;7.218;2023-05-23T05:24:13;15.80;86.60
41304;DHT22;51002;51.462;7.218;2023-05-23T05:26:40;15.80;86.20
41304;DHT22;51002;51.462;7.218;2023-05-23T05:29:05;15.90;87.50
41304;DHT22;51002;51.462;7.218;2023-05-23T05:31:33;15.80;86.40
41304;DHT22;51002;51.462;7.218;2023-05-23T05:34:00;15.80;86.80
41304;DHT22;51002;51.462;7.218;2023-05-23T05:36:25;15.70;85.30
41304;DHT22;51002;51.462;7.218;2023-05-23T05:38:53;15.70;85.10
41304;DHT22;51002;51.462;7.218;2023-05-23T05:41:18;15.90;85.70
41304;DHT22;51002;51.462;7.218;2023-05-23T05:43:44;15.80;84.90
41304;DHT22;51002;51.462;7.218;2023-05-23T05:46:12;15.80;85.20
41304;DHT22;51002;51.462;7.218;2023-05-23T05:48:38;15.80;86.20
41304;DHT22;51002;51.462;7.218;2023-05-23T05:51:05;15.80;85.90
41304;DHT22;51002;51.462;7.218;2023-05-23T05:53:33;15.80;84.90
41304;DHT22;51002;51.462;7.218;2023-05-23T05:55:58;15.80;84.70
41304;DHT22;51002;51.462;7.218;2023-05-23T05:58:24;15.90;87.00
41304;DHT22;51002;51.462;7.218;2023-05-23T06:00:49;15.90;85.70
41304;DHT22;51002;51.462;7.218;2023-05-23T06:03:17;15.80;85.10
41304;DHT22;51002;51.462;7.218;2023-05-23T06:05:43;15.80;86.50
41304;DHT22;51002;51.462;7.218;2023-05-23T06:08:08;15.70;85.30
41304;DHT22;51002;51.462;7.218;2023-05-23T06:10:36;15.90;86.30
41304;DHT22;51002;51.462;7.218;2023-05-23T06:13:01;15.90;85.30
41304;DHT22;51002;51.462;7.218;2023-05-23T06:15:27;15.80;84.60
41304;DHT22;51002;51.462;7.218;2023-05-23T06:17:52;15.70;84.50
41304;DHT22;51002;51.462;7.218;2023-05-23T06:20:18;15.60;84.00
41304;DHT22;51002;51.462;7.218;2023-05-23T06:22:45;15.60;83.60
41304;DHT22;51002;51.462;7.218;2023-05-23T06:25:11;15.50;83.00
41304;DHT22;51002;51.462;7.218;2023-05-23T06:27:36;15.70;84.90
41304;DHT22;51002;51.462;7.218;2023-05-23T06:30:05;15.60;84.40
41304;DHT22;51002;51.462;7.218;2023-05-23T06:32:33;15.50;83.20
41304;DHT22;51002;51.462;7.218;2023-05-23T06:34:59;15.70;84.50
41304;DHT22;51002;51.462;7.218;2023-05-23T06:37:24;15.60;83.10
41304;DHT22;51002;51.462;7.218;2023-05-23T06:39:52;15.60;84.30
41304;DHT22;51002;51.462;7.218;2023-05-23T06:42:22;15.70;82.20
41304;DHT22;51002;51.462;7.218;2023-05-23T06:44:47;15.50;81.30
41304;DHT22;51002;51.462;7.218;2023-05-23T06:47:15;15.70;82.70
41304;DHT22;51002;51.462;7.218;2023-05-23T06:49:43;15.80;83.90
41304;DHT22;51002;51.462;7.218;2023-05-23T06:52:09;15.80;83.60
41304;DHT22;51002;51.462;7.218;2023-05-23T06:54:35;15.70;81.30
41304;DHT22;51002;51.462;7.218;2023-05-23T06:57:00;15.70;81.30
41304;DHT22;51002;51.462;7.218;2023-05-23T06:59:26;15.70;82.60
41304;DHT22;51002;51.462;7.218;2023-05-23T07:01:52;15.60;82.10
41304;DHT22;51002;51.462;7.218;2023-05-23T07:04:18;15.50;81.60
41304;DHT22;51002;51.462;7.218;2023-05-23T07:06:44;15.30;81.70
41304;DHT22;51002;51.462;7.218;2023-05-23T07:09:10;15.30;82.40
41304;DHT22;51002;51.462;7.218;2023-05-23T07:11:37;15.30;81.30
41304;DHT22;51002;51.462;7.218;2023-05-23T07:14:03;15.40;81.70
41304;DHT22;51002;51.462;7.218;2023-05-23T07:16:32;15.20;81.70
41304;DHT22;51002;51.462;7.218;2023-05-23T07:18:57;15.20;81.40
41304;DHT22;51002;51.462;7.218;2023-05-23T07:21:23;15.30;81.20
41304;DHT22;51002;51.462;7.218;2023-05-23T07:23:48;15.40;82.00
41304;DHT22;51002;51.462;7.218;2023-05-23T07:26:14;15.40;81.00
41304;DHT22;51002;51.462;7.218;2023-05-23T07:28:42;15.50;81.90
41304;DHT22;51002;51.462;7.218;2023-05-23T07:31:07;15.60;82.40
41304;DHT22;51002;51.462;7.218;2023-05-23T07:33:34;15.50;80.50
41304;DHT22;51002;51.462;7.218;2023-05-23T07:35:59;15.50;80.50
41304;DHT22;51002;51.462;7.218;2023-05-23T07:38:25;15.50;82.30
41304;DHT22;51002;51.462;7.218;2023-05-23T07:40:51;15.60;81.40
41304;DHT22;51002;51.462;7.218;2023-05-23T07:43:17;15.60;80.70
41304;DHT22;51002;51.462;7.218;2023-05-23T07:45:42;15.70;80.60
41304;DHT22;51002;51.462;7.218;2023-05-23T07:48:08;15.50;79.20
41304;DHT22;51002;51.462;7.218;2023-05-23T07:50:33;15.70;80.50
41304;DHT22;51002;51.462;7.218;2023-05-23T07:53:01;15.80;82.20
41304;DHT22;51002;51.462;7.218;2023-05-23T07:55:27;15.40;79.90
41304;DHT22;51002;51.462;7.218;2023-05-23T07:57:52;15.30;79.30
41304;DHT22;51002;51.462;7.218;2023-05-23T08:00:19;15.50;80.10
41304;DHT22;51002;51.462;7.218;2023-05-23T08:02:47;15.60;80.90
41304;DHT22;51002;51.462;7.218;2023-05-23T08:05:12;15.70;82.60
41304;DHT22;51002;51.462;7.218;2023-05-23T08:07:40;15.70;81.70
41304;DHT22;51002;51.462;7.218;2023-05-23T08:10:08;15.60;80.10
41304;DHT22;51002;51.462;7.218;2023-05-23T08:12:38;15.50;81.80
41304;DHT22;51002;51.462;7.218;2023-05-23T08:15:03;15.60;80.70
41304;DHT22;51002;51.462;7.218;2023-05-23T08:17:29;15.50;81.10
41304;DHT22;51002;51.462;7.218;2023-05-23T08:19:57;15.50;82.20
41304;DHT22;51002;51.462;7.218;2023-05-23T08:22:22;15.50;81.20
41304;DHT22;51002;51.462;7.218;2023-05-23T08:24:48;15.50;80.90
41304;DHT22;51002;51.462;7.218;2023-05-23T08:27:13;15.80;81.50
41304;DHT22;51002;51.462;7.218;2023-05-23T08:29:39;15.70;79.80
41304;DHT22;51002;51.462;7.218;2023-05-23T08:32:09;15.90;80.60
41304;DHT22;51002;51.462;7.218;2023-05-23T08:34:34;15.80;79.80
41304;DHT22;51002;51.462;7.218;2023-05-23T08:37:02;15.80;80.00
41304;DHT22;51002;51.462;7.218;2023-05-23T08:39:33;15.70;79.00
41304;DHT22;51002;51.462;7.218;2023-05-23T08:41:58;15.70;79.90
41304;DHT22;51002;51.462;7.218;2023-05-23T08:44:26;15.60;78.90
41304;DHT22;51002;51.462;7.218;2023-05-23T08:46:54;15.60;78.80
41304;DHT22;51002;51.462;7.218;2023-05-23T08:49:19;15.60;78.40
41304;DHT22;51002;51.462;7.218;2023-05-23T08:51:49;15.70;79.20
41304;DHT22;51002;51.462;7.218;2023-05-23T08:54:16;15.50;80.40
41304;DHT22;51002;51.462;7.218;2023-05-23T08:56:43;15.60;81.70
41304;DHT22;51002;51.462;7.218;2023-05-23T08:59:14;15.80;81.10
41304;DHT22;51002;51.462;7.218;2023-05-23T09:01:40;15.80;81.90
41304;DHT22;51002;51.462;7.218;2023-05-23T09:04:06;15.70;82.30
41304;DHT22;51002;51.462;7.218;2023-05-23T09:06:34;15.60;80.20
41304;DHT22;51002;51.462;7.218;2023-05-23T09:08:59;15.60;79.80
41304;DHT22;51002;51.462;7.218;2023-05-23T09:11:25;15.60;81.20
41304;DHT22;51002;51.462;7.218;2023-05-23T09:13:55;15.50;80.60
41304;DHT22;51002;51.462;7.218;2023-05-23T09:16:21;15.50;80.20
41304;DHT22;51002;51.462;7.218;2023-05-23T09:18:47;15.50;79.70
41304;DHT22;51002;51.462;7.218;2023-05-23T09:21:15;15.50;78.80
41304;DHT22;51002;51.462;7.218;2023-05-23T09:23:41;15.20;79.40
41304;DHT22;51002;51.462;7.218;2023-05-23T09:26:07;15.20;78.20
41304;DHT22;51002;51.462;7.218;2023-05-23T09:28:33;15.10;79.00
41304;DHT22;51002;51.462;7.218;2023-05-23T09:30:59;15.20;78.20
41304;DHT22;51002;51.462;7.218;2023-05-23T09:36:09;15.60;79.10
41304;DHT22;51002;51.462;7.218;2023-05-23T09:38:37;15.40;77.20
41304;DHT22;51002;51.462;7.218;2023-05-23T09:41:03;15.40;77.10
41304;DHT22;51002;51.462;7.218;2023-05-23T09:43:29;15.80;77.70
41304;DHT22;51002;51.462;7.218;2023-05-23T09:45:54;15.70;76.10
41304;DHT22;51002;51.462;7.218;2023-05-23T09:48:27;15.70;78.40
41304;DHT22;51002;51.462;7.218;2023-05-23T09:50:53;15.90;76.90
41304;DHT22;51002;51.462;7.218;2023-05-23T09:53:19;15.80;76.40
41304;DHT22;51002;51.462;7.218;2023-05-23T09:55:48;15.90;76.40
41304;DHT22;51002;51.462;7.218;2023-05-23T09:58:15;15.90;76.20
41304;DHT22;51002;51.462;7.218;2023-05-23T10:00:43;16.00;75.40
41304;DHT22;51002;51.462;7.218;2023-05-23T10:03:13;15.80;75.40
41304;DHT22;51002;51.462;7.218;2023-05-23T10:05:44;15.80;77.50
41304;DHT22;51002;51.462;7.218;2023-05-23T10:13:24;15.70;75.90
41304;DHT22;51002;51.462;7.218;2023-05-23T10:15:52;15.70;76.30
41304;DHT22;51002;51.462;7.218;2023-05-23T10:18:20;15.50;75.90
41304;DHT22;51002;51.462;7.218;2023-05-23T10:20:48;15.30;76.00
41304;DHT22;51002;51.462;7.218;2023-05-23T10:23:17;15.30;76.10
41304;DHT22;51002;51.462;7.218;2023-05-23T10:25:43;15.30;76.60
41304;DHT22;51002;51.462;7.218;2023-05-23T10:28:08;15.30;75.10
41304;DHT22;51002;51.462;7.218;2023-05-23T10:30:34;15.30;75.60
41304;DHT22;51002;51.462;7.218;2023-05-23T10:33:00;15.20;76.50
41304;DHT22;51002;51.462;7.218;2023-05-23T10:43:24;15.10;76.60
41304;DHT22;51002;51.462;7.218;2023-05-23T10:45:55;15.20;75.20
41304;DHT22;51002;51.462;7.218;2023-05-23T10:53:28;15.20;72.20
41304;DHT22;51002;51.462;7.218;2023-05-23T10:55:54;15.30;73.40
41304;DHT22;51002;51.462;7.218;2023-05-23T10:58:22;15.60;73.70
41304;DHT22;51002;51.462;7.218;2023-05-23T11:00:54;15.80;72.40
41304;DHT22;51002;51.462;7.218;2023-05-23T11:06:00;15.70;70.50
41304;DHT22;51002;51.462;7.218;2023-05-23T11:08:26;15.80;69.70
41304;DHT22;51002;51.462;7.218;2023-05-23T11:11:00;15.90;69.50
41304;DHT22;51002;51.462;7.218;2023-05-23T11:13:52;16.20;74.10
41304;DHT22;51002;51.462;7.218;2023-05-23T11:16:22;16.30;71.70
41304;DHT22;51002;51.462;7.218;2023-05-23T11:18:48;16.50;76.00
41304;DHT22;51002;51.462;7.218;2023-05-23T11:21:16;16.50;73.90
41304;DHT22;51002;51.462;7.218;2023-05-23T11:23:42;16.00;68.80
41304;DHT22;51002;51.462;7.218;2023-05-23T11:26:29;16.10;73.70
41304;DHT22;51002;51.462;7.218;2023-05-23T11:28:57;16.00;67.10
41304;DHT22;51002;51.462;7.218;2023-05-23T11:31:23;15.80;68.00
41304;DHT22;51002;51.462;7.218;2023-05-23T11:33:51;16.10;69.90
41304;DHT22;51002;51.462;7.218;2023-05-23T11:36:17;16.20;70.50
41304;DHT22;51002;51.462;7.218;2023-05-23T11:38:42;16.20;73.00
41304;DHT22;51002;51.462;7.218;2023-05-23T11:41:08;16.20;70.10
41304;DHT22;51002;51.462;7.218;2023-05-23T11:43:33;16.10;73.20
41304;DHT22;51002;51.462;7.218;2023-05-23T11:46:06;16.00;69.60
41304;DHT22;51002;51.462;7.218;2023-05-23T11:48:32;16.00;69.70
41304;DHT22;51002;51.462;7.218;2023-05-23T11:51:00;16.00;71.50
41304;DHT22;51002;51.462;7.218;2023-05-23T11:53:27;16.00;67.50
41304;DHT22;51002;51.462;7.218;2023-05-23T11:56:00;16.10;67.10
41304;DHT22;51002;51.462;7.218;2023-05-23T11:58:29;16.20;68.50
41304;DHT22;51002;51.462;7.218;2023-05-23T12:00:59;16.50;69.80
41304;DHT22;51002;51.462;7.218;2023-05-23T12:03:25;16.30;65.90
41304;DHT22;51002;51.462;7.218;2023-05-23T12:05:50;16.40;71.00
41304;DHT22;51002;51.462;7.218;2023-05-23T12:08:16;16.50;69.10
41304;DHT22;51002;51.462;7.218;2023-05-23T12:13:19;16.30;73.10
41304;DHT22;51002;51.462;7.218;2023-05-23T12:15:44;16.20;66.90
41304;DHT22;51002;51.462;7.218;2023-05-23T12:18:11;16.30;68.10
41304;DHT22;51002;51.462;7.218;2023-05-23T12:20:40;16.70;70.10
41304;DHT22;51002;51.462;7.218;2023-05-23T12:23:08;16.50;64.20
41304;DHT22;51002;51.462;7.218;2023-05-23T12:25:37;16.60;68.60
41304;DHT22;51002;51.462;7.218;2023-05-23T12:28:02;16.50;66.50
41304;DHT22;51002;51.462;7.218;2023-05-23T12:30:39;16.40;65.70
41304;DHT22;51002;51.462;7.218;2023-05-23T12:33:06;16.50;66.20
41304;DHT22;51002;51.462;7.218;2023-05-23T12:35:39;16.70;67.70
41304;DHT22;51002;51.462;7.218;2023-05-23T12:38:09;16.50;61.10
41304;DHT22;51002;51.462;7.218;2023-05-23T12:40:38;16.50;62.80
41304;DHT22;51002;51.462;7.218;2023-05-23T12:43:07;16.40;59.00
41304;DHT22;51002;51.462;7.218;2023-05-23T12:45:34;16.70;65.70
41304;DHT22;51002;51.462;7.218;2023-05-23T12:48:06;16.80;61.30
41304;DHT22;51002;51.462;7.218;2023-05-23T12:50:31;16.80;60.20
41304;DHT22;51002;51.462;7.218;2023-05-23T12:52:59;16.80;61.40
41304;DHT22;51002;51.462;7.218;2023-05-23T12:55:25;16.70;63.50
41304;DHT22;51002;51.462;7.218;2023-05-23T12:57:50;16.60;62.10
41304;DHT22;51002;51.462;7.218;2023-05-23T13:00:16;16.70;62.90
41304;DHT22;51002;51.462;7.218;2023-05-23T13:02:41;16.70;65.20
41304;DHT22;51002;51.462;7.218;2023-05-23T13:05:07;16.70;64.00
41304;DHT22;51002;51.462;7.218;2023-05-23T13:07:33;16.70;57.70
41304;DHT22;51002;51.462;7.218;2023-05-23T13:10:00;16.80;57.70
41304;DHT22;51002;51.462;7.218;2023-05-23T13:12:26;16.80;58.60
41304;DHT22;51002;51.462;7.218;2023-05-23T13:14:54;17.00;62.00
41304;DHT22;51002;51.462;7.218;2023-05-23T13:17:20;17.20;63.90
41304;DHT22;51002;51.462;7.218;2023-05-23T13:19:46;17.00;57.80
41304;DHT22;51002;51.462;7.218;2023-05-23T13:22:11;16.90;56.00
41304;DHT22;51002;51.462;7.218;2023-05-23T13:24:37;17.00;61.70
41304;DHT22;51002;51.462;7.218;2023-05-23T13:27:03;17.20;60.80
41304;DHT22;51002;51.462;7.218;2023-05-23T13:29:32;17.30;58.70
41304;DHT22;51002;51.462;7.218;2023-05-23T13:32:00;17.40;58.50
41304;DHT22;51002;51.462;7.218;2023-05-23T13:34:25;17.50;61.10
41304;DHT22;51002;51.462;7.218;2023-05-23T13:36:52;17.30;60.30
41304;DHT22;51002;51.462;7.218;2023-05-23T13:39:18;17.40;60.90
41304;DHT22;51002;51.462;7.218;2023-05-23T13:41:49;17.40;61.80
41304;DHT22;51002;51.462;7.218;2023-05-23T13:44:14;17.50;62.10
41304;DHT22;51002;51.462;7.218;2023-05-23T13:46:40;17.50;63.90
41304;DHT22;51002;51.462;7.218;2023-05-23T13:49:08;17.40;57.10
41304;DHT22;51002;51.462;7.218;2023-05-23T13:51:34;17.40;55.50
41304;DHT22;51002;51.462;7.218;2023-05-23T13:54:02;17.50;58.10
41304;DHT22;51002;51.462;7.218;2023-05-23T13:56:30;17.30;59.30
41304;DHT22;51002;51.462;7.218;2023-05-23T13:58:58;17.70;62.60
41304;DHT22;51002;51.462;7.218;2023-05-23T14:01:23;17.60;56.90
41304;DHT22;51002;51.462;7.218;2023-05-23T14:03:51;17.70;57.70
41304;DHT22;51002;51.462;7.218;2023-05-23T14:06:16;17.70;58.90
41304;DHT22;51002;51.462;7.218;2023-05-23T14:08:42;17.70;55.40
41304;DHT22;51002;51.462;7.218;2023-05-23T14:11:07;17.70;56.50
41304;DHT22;51002;51.462;7.218;2023-05-23T14:13:33;17.80;56.40
41304;DHT22;51002;51.462;7.218;2023-05-23T14:15:58;17.70;57.60
41304;DHT22;51002;51.462;7.218;2023-05-23T14:18:26;17.70;57.80
41304;DHT22;51002;51.462;7.218;2023-05-23T14:20:54;17.80;60.30
41304;DHT22;51002;51.462;7.218;2023-05-23T14:23:22;17.50;56.70
41304;DHT22;51002;51.462;7.218;2023-05-23T14:25:47;17.60;59.10
41304;DHT22;51002;51.462;7.218;2023-05-23T14:28:13;17.60;55.40
41304;DHT22;51002;51.462;7.218;2023-05-23T14:30:39;17.50;56.50
41304;DHT22;51002;51.462;7.218;2023-05-23T14:33:04;17.40;56.00
41304;DHT22;51002;51.462;7.218;2023-05-23T14:35:30;17.50;55.50
41304;DHT22;51002;51.462;7.218;2023-05-23T14:37:55;17.50;52.80
41304;DHT22;51002;51.462;7.218;2023-05-23T14:40:20;17.40;56.70
41304;DHT22;51002;51.462;7.218;2023-05-23T14:42:46;17.50;56.80
41304;DHT22;51002;51.462;7.218;2023-05-23T14:45:12;17.60;56.50
41304;DHT22;51002;51.462;7.218;2023-05-23T14:47:39;17.70;59.50
41304;DHT22;51002;51.462;7.218;2023-05-23T14:50:05;17.50;52.00
41304;DHT22;51002;51.462;7.218;2023-05-23T14:52:31;17.70;51.70
41304;DHT22;51002;51.462;7.218;2023-05-23T14:54:56;17.70;51.50
41304;DHT22;51002;51.462;7.218;2023-05-23T14:57:22;17.80;56.90
41304;DHT22;51002;51.462;7.218;2023-05-23T14:59:48;17.70;59.10
41304;DHT22;51002;51.462;7.218;2023-05-23T15:02:13;17.50;54.10
41304;DHT22;51002;51.462;7.218;2023-05-23T15:04:39;17.30;51.80
41304;DHT22;51002;51.462;7.218;2023-05-23T15:07:04;17.50;56.70
41304;DHT22;51002;51.462;7.218;2023-05-23T15:09:35;17.20;51.20
41304;DHT22;51002;51.462;7.218;2023-05-23T15:12:03;17.20;51.60
41304;DHT22;51002;51.462;7.218;2023-05-23T15:14:34;17.20;55.10
41304;DHT22;51002;51.462;7.218;2023-05-23T15:16:59;17.30;56.90
41304;DHT22;51002;51.462;7.218;2023-05-23T15:19:32;17.20;59.70
41304;DHT22;51002;51.462;7.218;2023-05-23T15:21:58;17.00;51.60
41304;DHT22;51002;51.462;7.218;2023-05-23T15:24:26;17.00;55.30
41304;DHT22;51002;51.462;7.218;2023-05-23T15:26:52;17.20;51.60
41304;DHT22;51002;51.462;7.218;2023-05-23T15:29:18;17.20;55.20
41304;DHT22;51002;51.462;7.218;2023-05-23T15:31:43;17.40;56.90
41304;DHT22;51002;51.462;7.218;2023-05-23T15:34:09;17.30;48.90
41304;DHT22;51002;51.462;7.218;2023-05-23T15:36:39;17.40;57.90
41304;DHT22;51002;51.462;7.218;2023-05-23T15:39:05;17.00;51.20
41304;DHT22;51002;51.462;7.218;2023-05-23T15:41:33;16.90;50.80
41304;DHT22;51002;51.462;7.218;2023-05-23T15:43:58;16.90;51.00
41304;DHT22;51002;51.462;7.218;2023-05-23T15:46:24;17.00;52.10
41304;DHT22;51002;51.462;7.218;2023-05-23T15:48:51;17.00;53.20
41304;DHT22;51002;51.462;7.218;2023-05-23T15:51:17;17.00;53.30
41304;DHT22;51002;51.462;7.218;2023-05-23T15:53:42;16.80;50.50
41304;DHT22;51002;51.462;7.218;2023-05-23T15:56:08;16.70;49.70
41304;DHT22;51002;51.462;7.218;2023-05-23T15:58:33;16.70;48.80
41304;DHT22;51002;51.462;7.218;2023-05-23T16:01:00;16.90;53.10